createdAt,value
2022-08-21T00:00:25.342Z,99.99
2022-08-21T00:01:25.979Z,99.99
2022-08-21T00:02:26.990Z,99.99
2022-08-21T00:03:27.643Z,99.99
2022-08-21T00:04:32.475Z,99.99
2022-08-21T00:05:33.756Z,99.99
2022-08-21T00:06:34.371Z,99.99
2022-08-21T00:07:35.274Z,99.99
2022-08-21T00:08:36.488Z,99.99
2022-08-21T00:09:36.721Z,99.99
2022-08-21T00:10:37.212Z,99.99
2022-08-21T00:11:37.435Z,99.99
2022-08-21T00:12:38.057Z,99.99
2022-08-21T00:13:38.998Z,99.99
2022-08-21T00:14:39.640Z,99.99
2022-08-21T00:15:40.930Z,99.99
2022-08-21T00:16:41.481Z,99.99
2022-08-21T00:17:41.742Z,99.99
2022-08-21T00:18:42.955Z,99.99
2022-08-21T00:19:43.173Z,99.99
2022-08-21T00:20:44.091Z,99.99
2022-08-21T00:21:44.873Z,99.99
2022-08-21T00:22:45.212Z,99.99
2022-08-21T00:23:46.190Z,99.99
2022-08-21T00:24:47.114Z,99.99
2022-08-21T00:25:47.835Z,99.99
2022-08-21T00:26:48.048Z,99.99
2022-08-21T00:27:48.246Z,99.99
2022-08-21T00:28:49.166Z,99.99
2022-08-21T00:29:49.534Z,99.99
2022-08-21T00:30:50.030Z,99.99
2022-08-21T00:31:49.948Z,99.99
2022-08-21T00:32:50.910Z,99.99
2022-08-21T00:33:51.938Z,99.99
2022-08-21T00:34:52.624Z,99.99
2022-08-21T00:35:53.331Z,99.99
2022-08-21T00:36:53.974Z,99.99
2022-08-21T00:37:54.889Z,99.99
2022-08-21T00:38:55.512Z,99.99
2022-08-21T00:39:56.220Z,99.99
2022-08-21T00:40:57.348Z,99.99
2022-08-21T00:41:57.813Z,99.99
2022-08-21T00:42:59.166Z,99.99
2022-08-21T00:43:59.749Z,99.99
2022-08-21T00:44:59.673Z,99.99
2022-08-21T00:46:00.267Z,99.99
2022-08-21T00:47:00.887Z,99.99
2022-08-21T00:48:01.083Z,99.99
2022-08-21T00:49:04.475Z,99.99
2022-08-21T00:50:02.370Z,99.99
2022-08-21T00:51:02.804Z,99.99
2022-08-21T00:52:03.709Z,99.99
2022-08-21T00:53:04.280Z,99.99
2022-08-21T00:54:05.937Z,99.99
2022-08-21T00:55:06.515Z,99.99
2022-08-21T00:56:06.571Z,99.99
2022-08-21T00:57:06.896Z,99.99
2022-08-21T00:58:07.476Z,99.99
2022-08-21T00:59:07.886Z,99.99
2022-08-21T01:00:08.509Z,99.99
2022-08-21T01:01:13.812Z,99.99
2022-08-21T01:02:09.632Z,99.99
2022-08-21T01:03:12.923Z,99.99
2022-08-21T01:04:11.610Z,99.99
2022-08-21T01:05:11.799Z,99.99
2022-08-21T01:06:12.514Z,99.99
2022-08-21T01:07:13.427Z,99.99
2022-08-21T01:08:13.575Z,99.99
2022-08-21T01:09:14.218Z,99.99
2022-08-21T01:10:23.895Z,99.99
2022-08-21T01:11:14.539Z,99.99
2022-08-21T01:12:15.434Z,99.99
2022-08-21T01:13:16.501Z,99.99
2022-08-21T01:14:17.111Z,99.99
2022-08-21T01:15:17.739Z,99.99
2022-08-21T01:16:18.721Z,99.99
2022-08-21T01:17:19.917Z,99.99
2022-08-21T01:18:19.827Z,99.99
2022-08-21T01:19:21.018Z,99.99
2022-08-21T01:20:21.527Z,99.99
2022-08-21T01:21:22.020Z,99.99
2022-08-21T01:22:22.199Z,99.99
2022-08-21T01:23:22.111Z,99.99
2022-08-21T01:24:23.346Z,99.99
2022-08-21T01:25:23.974Z,99.99
2022-08-21T01:26:24.668Z,99.99
2022-08-21T01:27:25.364Z,99.99
2022-08-21T01:28:25.565Z,99.99
2022-08-21T01:29:26.460Z,99.99
2022-08-21T01:30:27.373Z,99.99
2022-08-21T01:31:31.320Z,99.99
2022-08-21T01:32:28.538Z,99.99
2022-08-21T01:33:29.136Z,99.99
2022-08-21T01:34:30.054Z,99.99
2022-08-21T01:35:30.698Z,99.99
2022-08-21T01:36:31.115Z,99.99
2022-08-21T01:37:31.312Z,99.99
2022-08-21T01:38:33.062Z,99.99
2022-08-21T01:39:32.959Z,99.99
2022-08-21T01:40:34.082Z,99.99
2022-08-21T01:41:34.299Z,99.99
2022-08-21T01:42:34.491Z,99.99
2022-08-21T01:43:44.796Z,99.99
2022-08-21T01:44:36.329Z,99.99
2022-08-21T01:45:37.245Z,99.99
2022-08-21T01:46:37.961Z,99.99
2022-08-21T01:47:39.159Z,99.99
2022-08-21T01:48:39.057Z,99.99
2022-08-21T01:49:39.564Z,99.99
2022-08-21T01:50:39.459Z,99.99
2022-08-21T01:51:40.692Z,99.99
2022-08-21T01:52:40.891Z,99.99
2022-08-21T01:53:41.381Z,99.99
2022-08-21T01:54:41.572Z,99.99
2022-08-21T01:55:41.473Z,99.99
2022-08-21T01:56:42.189Z,99.99
2022-08-21T01:57:42.095Z,99.99
2022-08-21T01:58:42.589Z,99.99
2022-08-21T01:59:42.807Z,99.99
2022-08-21T02:00:43.109Z,99.99
2022-08-21T02:01:43.299Z,99.99
2022-08-21T02:02:43.794Z,99.99
2022-08-21T02:03:44.547Z,99.99
2022-08-21T02:04:44.863Z,99.99
2022-08-21T02:05:45.821Z,99.99
2022-08-21T02:06:46.820Z,99.99
2022-08-21T02:07:47.043Z,99.99
2022-08-21T02:08:47.958Z,99.99
2022-08-21T02:09:49.034Z,99.99
2022-08-21T02:10:54.333Z,99.99
2022-08-21T02:11:49.955Z,99.99
2022-08-21T02:12:50.870Z,99.99
2022-08-21T02:13:51.602Z,99.99
2022-08-21T02:14:52.541Z,99.99
2022-08-21T02:15:52.755Z,99.99
2022-08-21T02:17:05.070Z,99.99
2022-08-21T02:17:54.052Z,99.99
2022-08-21T02:18:54.985Z,99.99
2022-08-21T02:19:55.178Z,99.99
2022-08-21T02:21:01.315Z,99.99
2022-08-21T02:21:56.954Z,99.99
2022-08-21T02:22:57.922Z,99.99
2022-08-21T02:23:58.243Z,99.99
2022-08-21T02:25:00.412Z,99.99
2022-08-21T02:25:59.327Z,99.99
2022-08-21T02:26:59.986Z,99.99
2022-08-21T02:28:00.689Z,99.99
2022-08-21T02:29:00.577Z,99.99
2022-08-21T02:30:01.490Z,99.99
2022-08-21T02:31:01.698Z,99.99
2022-08-21T02:32:02.618Z,99.99
2022-08-21T02:33:03.806Z,99.99
2022-08-21T02:34:03.712Z,99.99
2022-08-21T02:35:04.320Z,99.99
2022-08-21T02:36:04.810Z,99.99
2022-08-21T02:37:05.949Z,99.99
2022-08-21T02:38:06.135Z,99.99
2022-08-21T02:39:06.629Z,99.99
2022-08-21T02:40:07.699Z,99.99
2022-08-21T02:41:08.577Z,99.99
2022-08-21T02:42:08.764Z,99.99
2022-08-21T02:43:08.680Z,99.99
2022-08-21T02:44:09.054Z,99.99
2022-08-21T02:45:10.269Z,99.99
2022-08-21T02:46:11.179Z,99.99
2022-08-21T02:47:11.955Z,99.99
2022-08-21T02:48:12.272Z,99.99
2022-08-21T02:49:12.865Z,99.99
2022-08-21T02:50:13.484Z,99.99
2022-08-21T02:51:14.021Z,99.99
2022-08-21T02:52:14.940Z,99.99
2022-08-21T02:53:15.859Z,99.99
2022-08-21T02:54:15.753Z,99.99
2022-08-21T02:55:16.945Z,99.99
2022-08-21T02:56:17.563Z,99.99
2022-08-21T02:57:18.547Z,99.99
2022-08-21T02:58:18.758Z,99.99
2022-08-21T02:59:18.973Z,99.99
2022-08-21T03:00:19.889Z,99.99
2022-08-21T03:01:20.275Z,99.99
2022-08-21T03:02:20.967Z,99.99
2022-08-21T03:03:21.321Z,99.99
2022-08-21T03:04:21.513Z,99.99
2022-08-21T03:05:22.125Z,99.99
2022-08-21T03:06:22.744Z,99.99
2022-08-21T03:07:23.073Z,99.99
2022-08-21T03:08:24.184Z,99.99
2022-08-21T03:09:24.701Z,99.99
2022-08-21T03:10:25.592Z,99.99
2022-08-21T03:11:25.507Z,99.99
2022-08-21T03:12:26.624Z,99.99
2022-08-21T03:13:26.462Z,99.99
2022-08-21T03:14:26.654Z,99.99
2022-08-21T03:15:27.873Z,99.99
2022-08-21T03:16:30.048Z,99.99
2022-08-21T03:17:35.393Z,99.99
2022-08-21T03:18:28.588Z,99.99
2022-08-21T03:19:28.937Z,99.99
2022-08-21T03:20:29.858Z,99.99
2022-08-21T03:21:30.055Z,99.99
2022-08-21T03:22:32.272Z,99.99
2022-08-21T03:23:37.723Z,99.99
2022-08-21T03:24:31.913Z,99.99
2022-08-21T03:25:45.832Z,99.99
2022-08-21T03:26:33.531Z,99.99
2022-08-21T03:27:35.236Z,99.99
2022-08-21T03:28:34.132Z,99.99
2022-08-21T03:29:34.775Z,99.99
2022-08-21T03:30:35.691Z,99.99
2022-08-21T03:31:36.623Z,99.99
2022-08-21T03:32:37.229Z,99.99
2022-08-21T03:33:39.032Z,99.99
2022-08-21T03:34:38.332Z,99.99
2022-08-21T03:35:38.675Z,99.99
2022-08-21T03:36:39.018Z,99.99
2022-08-21T03:37:39.735Z,99.99
2022-08-21T03:38:40.225Z,99.99
2022-08-21T03:39:40.500Z,99.99
2022-08-21T03:40:40.555Z,99.99
2022-08-21T03:41:41.472Z,99.99
2022-08-21T03:42:42.389Z,99.99
2022-08-21T03:43:42.891Z,99.99
2022-08-21T03:44:43.086Z,99.99
2022-08-21T03:45:43.732Z,99.99
2022-08-21T03:46:44.034Z,99.99
2022-08-21T03:47:44.312Z,99.99
2022-08-21T03:48:44.807Z,99.99
2022-08-21T03:49:44.725Z,99.99
2022-08-21T03:50:46.382Z,99.99
2022-08-21T03:51:45.593Z,99.99
2022-08-21T03:52:46.687Z,99.99
2022-08-21T03:53:47.029Z,99.99
2022-08-21T03:54:47.378Z,99.99
2022-08-21T03:55:47.772Z,99.99
2022-08-21T03:56:48.310Z,99.99
2022-08-21T03:57:48.643Z,99.99
2022-08-21T03:58:48.751Z,99.99
2022-08-21T03:59:49.066Z,99.99
2022-08-21T04:00:50.002Z,99.99
2022-08-21T04:01:56.554Z,99.99
2022-08-21T04:02:51.166Z,99.99
2022-08-21T04:03:51.566Z,99.99
2022-08-21T04:04:52.484Z,99.99
2022-08-21T04:05:52.981Z,99.99
2022-08-21T04:06:53.479Z,99.99
2022-08-21T04:07:54.194Z,99.99
2022-08-21T04:08:55.110Z,99.99
2022-08-21T04:09:56.012Z,99.99
2022-08-21T04:10:56.501Z,99.99
2022-08-21T04:11:56.698Z,99.99
2022-08-21T04:12:57.845Z,99.99
2022-08-21T04:13:57.523Z,99.99
2022-08-21T04:14:59.305Z,99.99
2022-08-21T04:15:59.950Z,99.99
2022-08-21T04:17:00.426Z,99.99
2022-08-21T04:18:01.147Z,99.99
2022-08-21T04:19:01.776Z,99.99
2022-08-21T04:20:02.841Z,99.99
2022-08-21T04:21:03.883Z,99.99
2022-08-21T04:22:03.962Z,99.99
2022-08-21T04:23:04.527Z,99.99
2022-08-21T04:24:05.132Z,99.99
2022-08-21T04:25:06.049Z,99.99
2022-08-21T04:26:06.961Z,99.99
2022-08-21T04:27:07.878Z,99.99
2022-08-21T04:28:07.859Z,99.99
2022-08-21T04:29:08.619Z,99.99
2022-08-21T04:30:09.651Z,99.99
2022-08-21T04:31:10.132Z,99.99
2022-08-21T04:32:10.345Z,99.99
2022-08-21T04:33:10.246Z,99.99
2022-08-21T04:34:11.163Z,99.99
2022-08-21T04:35:11.076Z,99.99
2022-08-21T04:36:12.012Z,99.99
2022-08-21T04:37:12.137Z,99.99
2022-08-21T04:38:12.571Z,99.99
2022-08-21T04:39:15.650Z,99.99
2022-08-21T04:40:13.509Z,99.99
2022-08-21T04:41:14.420Z,99.99
2022-08-21T04:42:14.341Z,99.99
2022-08-21T04:43:14.833Z,99.99
2022-08-21T04:44:15.760Z,99.99
2022-08-21T04:45:15.652Z,99.99
2022-08-21T04:46:19.051Z,99.99
2022-08-21T04:47:16.666Z,99.99
2022-08-21T04:48:28.842Z,99.99
2022-08-21T04:49:29.731Z,99.99
2022-08-21T04:50:29.932Z,99.99
2022-08-21T04:51:32.415Z,99.99
2022-08-21T04:52:31.315Z,99.99
2022-08-21T04:53:31.533Z,99.99
2022-08-21T04:54:31.830Z,99.99
2022-08-21T04:55:32.451Z,99.99
2022-08-21T04:56:32.947Z,99.99
2022-08-21T04:57:54.245Z,99.99
2022-08-21T04:58:41.971Z,99.99
2022-08-21T04:59:42.610Z,99.99
2022-08-21T05:00:43.528Z,99.99
2022-08-21T05:01:43.827Z,99.99
2022-08-21T05:02:43.817Z,99.99
2022-08-21T05:03:44.783Z,99.99
2022-08-21T05:04:45.851Z,99.99
2022-08-21T05:05:46.567Z,99.99
2022-08-21T05:06:47.185Z,99.99
2022-08-21T05:07:48.371Z,99.99
2022-08-21T05:08:47.820Z,99.99
2022-08-21T05:09:47.971Z,99.99
2022-08-21T05:10:49.187Z,99.99
2022-08-21T05:11:49.365Z,99.99
2022-08-21T05:12:49.584Z,99.99
2022-08-21T05:13:52.371Z,99.99
2022-08-21T05:14:50.393Z,99.99
2022-08-21T05:15:51.606Z,99.99
2022-08-21T05:16:51.796Z,99.99
2022-08-21T05:18:06.414Z,99.99
2022-08-21T05:18:54.134Z,99.99
2022-08-21T05:19:54.331Z,99.99
2022-08-21T05:20:54.950Z,99.99
2022-08-21T05:21:55.847Z,99.99
2022-08-21T05:22:57.207Z,99.99
2022-08-21T05:23:57.373Z,99.99
2022-08-21T05:24:57.574Z,99.99
2022-08-21T05:25:58.948Z,99.99
2022-08-21T05:26:59.274Z,99.99
2022-08-21T05:28:00.677Z,99.99
2022-08-21T05:29:02.769Z,99.99
2022-08-21T05:30:01.563Z,99.99
2022-08-21T05:31:01.769Z,99.99
2022-08-21T05:32:01.970Z,99.99
2022-08-21T05:33:02.795Z,99.99
2022-08-21T05:34:03.435Z,99.99
2022-08-21T05:35:03.868Z,99.99
2022-08-21T05:36:04.356Z,99.99
2022-08-21T05:37:07.422Z,99.99
2022-08-21T05:38:05.256Z,99.99
2022-08-21T05:39:06.250Z,99.99
2022-08-21T05:40:27.721Z,99.99
2022-08-21T05:41:07.061Z,99.99
2022-08-21T05:42:07.717Z,99.99
2022-08-21T05:43:08.066Z,99.99
2022-08-21T05:44:15.687Z,99.99
2022-08-21T05:45:09.974Z,99.99
2022-08-21T05:46:10.370Z,99.99
2022-08-21T05:47:10.992Z,99.99
2022-08-21T05:48:11.316Z,99.99
2022-08-21T05:49:12.344Z,99.99
2022-08-21T05:50:12.640Z,99.99
2022-08-21T05:51:12.904Z,99.99
2022-08-21T05:52:13.399Z,99.99
2022-08-21T05:53:14.018Z,99.99
2022-08-21T05:54:14.941Z,99.99
2022-08-21T05:55:15.290Z,99.99
2022-08-21T05:56:16.495Z,99.99
2022-08-21T05:57:16.711Z,99.99
2022-08-21T05:58:16.660Z,99.99
2022-08-21T05:59:17.400Z,99.99
2022-08-21T06:00:18.294Z,99.99
2022-08-21T06:01:18.593Z,99.99
2022-08-21T06:02:18.595Z,99.99
2022-08-21T06:03:19.092Z,99.99
2022-08-21T06:04:20.010Z,99.99
2022-08-21T06:05:36.524Z,99.99
2022-08-21T06:06:20.213Z,99.99
2022-08-21T06:07:20.543Z,99.99
2022-08-21T06:08:21.741Z,99.99
2022-08-21T06:09:22.762Z,99.99
2022-08-21T06:10:22.961Z,99.99
2022-08-21T06:11:28.943Z,99.99
2022-08-21T06:12:24.296Z,99.99
2022-08-21T06:13:24.457Z,99.99
2022-08-21T06:14:25.454Z,99.99
2022-08-21T06:15:26.355Z,99.99
2022-08-21T06:16:27.297Z,99.99
2022-08-21T06:17:27.492Z,99.99
2022-08-21T06:18:27.689Z,99.99
2022-08-21T06:19:27.812Z,99.99
2022-08-21T06:20:28.381Z,99.99
2022-08-21T06:21:29.021Z,99.99
2022-08-21T06:22:29.639Z,99.99
2022-08-21T06:23:38.785Z,99.99
2022-08-21T06:24:30.979Z,99.99
2022-08-21T06:25:32.335Z,99.99
2022-08-21T06:26:32.938Z,99.99
2022-08-21T06:27:33.842Z,99.99
2022-08-21T06:28:35.064Z,99.99
2022-08-21T06:29:49.831Z,99.99
2022-08-21T06:30:36.048Z,99.99
2022-08-21T06:31:35.962Z,99.99
2022-08-21T06:32:36.354Z,99.99
2022-08-21T06:33:38.384Z,99.99
2022-08-21T06:34:37.297Z,99.99
2022-08-21T06:35:37.789Z,99.99
2022-08-21T06:36:38.792Z,99.99
2022-08-21T06:37:39.739Z,99.99
2022-08-21T06:38:41.337Z,99.99
2022-08-21T06:39:56.252Z,99.99
2022-08-21T06:40:57.877Z,99.99
2022-08-21T06:41:56.615Z,99.99
2022-08-21T06:42:57.694Z,99.99
2022-08-21T06:43:58.158Z,99.99
2022-08-21T06:44:58.654Z,99.99
2022-08-21T06:45:58.849Z,99.99
2022-08-21T06:46:59.497Z,99.99
2022-08-21T06:47:59.393Z,99.99
2022-08-21T06:49:00.765Z,99.99
2022-08-21T06:50:01.408Z,99.99
2022-08-21T06:51:01.311Z,99.99
2022-08-21T06:52:01.813Z,99.99
2022-08-21T06:53:02.033Z,99.99
2022-08-21T06:54:04.680Z,99.99
2022-08-21T06:55:03.031Z,99.99
2022-08-21T06:56:03.782Z,99.99
2022-08-21T06:57:04.707Z,99.99
2022-08-21T06:58:04.934Z,99.99
2022-08-21T06:59:05.833Z,99.99
2022-08-21T07:00:06.534Z,99.99
2022-08-21T07:01:07.881Z,99.99
2022-08-21T07:02:08.708Z,99.99
2022-08-21T07:03:08.906Z,99.99
2022-08-21T07:04:09.407Z,99.99
2022-08-21T07:05:23.701Z,99.99
2022-08-21T07:06:10.904Z,99.99
2022-08-21T07:07:11.395Z,99.99
2022-08-21T07:08:11.597Z,99.99
2022-08-21T07:09:12.516Z,99.99
2022-08-21T07:10:22.103Z,99.99
2022-08-21T07:11:13.646Z,99.99
2022-08-21T07:12:14.251Z,99.99
2022-08-21T07:13:15.184Z,99.99
2022-08-21T07:14:25.831Z,99.99
2022-08-21T07:15:16.735Z,99.99
2022-08-21T07:16:17.061Z,99.99
2022-08-21T07:17:17.972Z,99.99
2022-08-21T07:18:18.180Z,99.99
2022-08-21T07:19:18.803Z,99.99
2022-08-21T07:20:19.808Z,99.99
2022-08-21T07:21:23.935Z,99.99
2022-08-21T07:22:20.779Z,99.99
2022-08-21T07:23:21.003Z,99.99
2022-08-21T07:24:20.923Z,99.99
2022-08-21T07:25:21.129Z,99.99
2022-08-21T07:26:22.332Z,99.99
2022-08-21T07:27:22.933Z,99.99
2022-08-21T07:28:23.587Z,99.99
2022-08-21T07:29:23.521Z,99.99
2022-08-21T07:30:24.542Z,99.99
2022-08-21T07:31:25.038Z,99.99
2022-08-21T07:32:26.993Z,99.99
2022-08-21T07:33:25.902Z,99.99
2022-08-21T07:34:26.406Z,99.99
2022-08-21T07:35:27.328Z,99.99
2022-08-21T07:36:27.226Z,99.99
2022-08-21T07:37:28.409Z,99.99
2022-08-21T07:38:28.645Z,99.99
2022-08-21T07:39:28.992Z,99.99
2022-08-21T07:40:29.866Z,99.99
2022-08-21T07:41:30.785Z,99.99
2022-08-21T07:42:32.748Z,99.99
2022-08-21T07:43:31.974Z,99.99
2022-08-21T07:44:32.972Z,99.99
2022-08-21T07:45:33.195Z,99.99
2022-08-21T07:46:33.823Z,99.99
2022-08-21T07:47:47.981Z,99.99
2022-08-21T07:48:34.588Z,99.99
2022-08-21T07:49:34.812Z,99.99
2022-08-21T07:50:34.999Z,99.99
2022-08-21T07:51:35.354Z,99.99
2022-08-21T07:52:37.187Z,99.99
2022-08-21T07:53:36.813Z,99.99
2022-08-21T07:54:39.695Z,99.99
2022-08-21T07:55:38.322Z,99.99
2022-08-21T07:56:39.275Z,99.99
2022-08-21T07:57:39.181Z,99.99
2022-08-21T07:58:40.107Z,99.99
2022-08-21T07:59:40.313Z,99.99
2022-08-21T08:00:41.115Z,99.99
2022-08-21T08:01:41.942Z,99.99
2022-08-21T08:02:42.947Z,99.99
2022-08-21T08:03:43.445Z,99.99
2022-08-21T08:04:56.108Z,99.99
2022-08-21T08:05:43.762Z,99.99
2022-08-21T08:06:44.267Z,99.99
2022-08-21T08:07:44.768Z,99.99
2022-08-21T08:08:45.258Z,99.99
2022-08-21T08:09:45.910Z,99.99
2022-08-21T08:10:47.462Z,99.99
2022-08-21T08:11:46.962Z,99.99
2022-08-21T08:12:47.892Z,99.99
2022-08-21T08:13:48.754Z,99.99
2022-08-21T08:14:49.681Z,99.99
2022-08-21T08:15:50.702Z,99.99
2022-08-21T08:16:51.204Z,99.99
2022-08-21T08:17:51.937Z,99.99
2022-08-21T08:18:52.836Z,99.99
2022-08-21T08:19:53.756Z,99.99
2022-08-21T08:20:54.803Z,99.99
2022-08-21T08:21:55.020Z,99.99
2022-08-21T08:22:55.603Z,99.99
2022-08-21T08:23:56.319Z,99.99
2022-08-21T08:24:56.621Z,99.99
2022-08-21T08:25:58.066Z,99.99
2022-08-21T08:26:59.585Z,99.99
2022-08-21T08:27:58.090Z,99.99
2022-08-21T08:28:58.709Z,99.99
2022-08-21T08:29:59.215Z,99.99
2022-08-21T08:30:59.335Z,99.99
2022-08-21T08:31:59.981Z,99.99
2022-08-21T08:33:00.945Z,99.99
2022-08-21T08:34:01.327Z,99.99
2022-08-21T08:35:02.430Z,99.6
2022-08-21T08:36:06.478Z,97.86
2022-08-21T08:37:03.873Z,98.58
2022-08-21T08:39:04.603Z,99.99
2022-08-21T08:40:07.105Z,99.99
2022-08-21T08:41:05.776Z,99.99
2022-08-21T08:42:32.500Z,99.99
2022-08-21T08:43:07.113Z,99.99
2022-08-21T08:44:07.698Z,99.5
2022-08-21T08:45:08.622Z,97.47
2022-08-21T08:46:09.554Z,96.8
2022-08-21T08:47:10.056Z,94.38
2022-08-21T08:48:14.017Z,93.9
2022-08-21T08:49:10.082Z,92.89
2022-08-21T08:51:10.916Z,90.03
2022-08-21T08:52:11.824Z,88.67
2022-08-21T08:53:12.761Z,87.21
2022-08-21T08:54:13.995Z,85.17
2022-08-21T08:55:14.508Z,82.5
2022-08-21T08:56:14.885Z,80.25
2022-08-21T08:57:15.837Z,77.76
2022-08-21T08:58:16.070Z,75.18
2022-08-21T08:59:16.298Z,72.94
2022-08-21T09:00:16.645Z,71.03
2022-08-21T09:01:16.713Z,70.78
2022-08-21T09:02:17.680Z,68.44
2022-08-21T09:03:17.875Z,67.93
2022-08-21T09:04:18.087Z,66.31
2022-08-21T09:05:18.724Z,62.8
2022-08-21T09:06:19.235Z,60.42
2022-08-21T09:07:19.152Z,57.04
2022-08-21T09:08:24.119Z,56.97
2022-08-21T09:09:20.637Z,57.59
2022-08-21T09:10:21.381Z,56.15
2022-08-21T09:11:22.120Z,55.79
2022-08-21T09:12:22.757Z,53.93
2022-08-21T09:13:22.995Z,55.32
2022-08-21T09:14:23.311Z,55.52
2022-08-21T09:15:24.347Z,55.32
2022-08-21T09:16:25.394Z,54.67
2022-08-21T09:17:26.336Z,53.42
2022-08-21T09:18:26.555Z,53.81
2022-08-21T09:19:30.352Z,51.56
2022-08-21T09:20:27.286Z,51.59
2022-08-21T09:21:28.288Z,52.37
2022-08-21T09:22:28.806Z,53.06
2022-08-21T09:23:29.043Z,52.5
2022-08-21T09:24:29.308Z,49.75
2022-08-21T09:25:29.543Z,49.48
2022-08-21T09:26:30.062Z,50.15
2022-08-21T09:27:31.009Z,49.99
2022-08-21T09:28:31.701Z,50.54
2022-08-21T09:29:32.958Z,51.68
2022-08-21T09:30:32.879Z,54
2022-08-21T09:31:33.614Z,55.18
2022-08-21T09:32:42.357Z,56.32
2022-08-21T09:33:35.295Z,56.02
2022-08-21T09:34:35.930Z,56.02
2022-08-21T09:35:37.153Z,55.86
2022-08-21T09:36:37.798Z,55.96
2022-08-21T09:37:38.032Z,56.45
2022-08-21T09:38:38.545Z,56.15
2022-08-21T09:39:48.640Z,56.35
2022-08-21T09:40:39.706Z,57.32
2022-08-21T09:41:40.108Z,56.15
2022-08-21T09:42:40.752Z,56.15
2022-08-21T09:43:42.050Z,55.79
2022-08-21T09:44:42.688Z,55.59
2022-08-21T09:45:43.904Z,55.49
2022-08-21T09:46:44.544Z,55.69
2022-08-21T09:47:45.877Z,52.64
2022-08-21T09:48:47.013Z,55
2022-08-21T09:49:46.837Z,55.27
2022-08-21T09:50:47.768Z,54.81
2022-08-21T09:51:48.345Z,55.76
2022-08-21T09:52:48.584Z,55.66
2022-08-21T09:53:48.930Z,55.08
2022-08-21T09:54:50.147Z,55.57
2022-08-21T09:55:50.364Z,55.66
2022-08-21T09:56:50.672Z,55.76
2022-08-21T09:57:55.650Z,54.88
2022-08-21T09:58:51.868Z,52.34
2022-08-21T09:59:52.671Z,52.95
2022-08-21T10:00:53.388Z,48.46
2022-08-21T10:01:54.070Z,47.07
2022-08-21T10:02:54.351Z,48.51
2022-08-21T10:03:55.033Z,50.85
2022-08-21T10:04:58.141Z,53.66
2022-08-21T10:05:56.357Z,53.46
2022-08-21T10:07:00.138Z,54.63
2022-08-21T10:07:58.075Z,55.9
2022-08-21T10:08:58.293Z,52.78
2022-08-21T10:09:59.157Z,51.63
2022-08-21T10:11:01.918Z,53.36
2022-08-21T10:11:59.639Z,55.41
2022-08-21T10:13:00.553Z,53.85
2022-08-21T10:14:00.521Z,51.7
2022-08-21T10:15:01.626Z,50.53
2022-08-21T10:16:02.710Z,50.04
2022-08-21T10:17:02.749Z,50.51
2022-08-21T10:18:03.980Z,54.41
2022-08-21T10:19:04.007Z,53.6
2022-08-21T10:20:04.918Z,53.99
2022-08-21T10:21:05.528Z,53.89
2022-08-21T10:22:05.800Z,54.75
2022-08-21T10:23:07.947Z,54.36
2022-08-21T10:24:06.468Z,55.72
2022-08-21T10:25:07.200Z,56.79
2022-08-21T10:26:18.633Z,56.43
2022-08-21T10:27:08.595Z,55.85
2022-08-21T10:28:12.983Z,51.78
2022-08-21T10:29:09.291Z,54.5
2022-08-21T10:30:09.931Z,50.99
2022-08-21T10:31:10.567Z,51.78
2022-08-21T10:32:31.128Z,49.85
2022-08-21T10:33:12.643Z,50.51
2022-08-21T10:34:13.581Z,52.75
2022-08-21T10:35:14.222Z,53.14
2022-08-21T10:36:15.437Z,53.83
2022-08-21T10:37:16.600Z,53.95
2022-08-21T10:38:49.115Z,53.36
2022-08-21T10:39:47.181Z,49.29
2022-08-21T10:40:47.365Z,48.22
2022-08-21T10:41:47.999Z,49.1
2022-08-21T10:42:48.895Z,47.83
2022-08-21T10:43:48.766Z,50.85
2022-08-21T10:44:49.985Z,52.25
2022-08-21T10:45:50.340Z,49.29
2022-08-21T10:46:51.278Z,48.34
2022-08-21T10:47:53.792Z,48.71
2022-08-21T10:48:51.802Z,45.78
2022-08-21T10:49:52.373Z,47.92
2022-08-21T10:50:52.729Z,50.16
2022-08-21T10:51:52.946Z,48.41
2022-08-21T10:52:53.644Z,45.87
2022-08-21T10:53:54.309Z,50.85
2022-08-21T10:54:54.830Z,52.41
2022-08-21T10:55:55.762Z,51.53
2022-08-21T10:56:56.705Z,51.63
2022-08-21T10:57:57.074Z,52.22
2022-08-21T10:58:57.719Z,49.68
2022-08-21T11:00:00.845Z,48.32
2022-08-21T11:00:59.830Z,44.73
2022-08-21T11:02:00.679Z,48.29
2022-08-21T11:03:01.694Z,52.26
2022-08-21T11:04:04.932Z,50.41
2022-08-21T11:05:03.330Z,48.54
2022-08-21T11:06:04.376Z,48.02
2022-08-21T11:07:04.617Z,50.43
2022-08-21T11:08:06.895Z,50.85
2022-08-21T11:09:05.923Z,52.11
2022-08-21T11:10:08.383Z,53.64
2022-08-21T11:11:09.864Z,52.45
2022-08-21T11:12:16.883Z,54.2
2022-08-21T11:13:09.222Z,57.69
2022-08-21T11:14:09.705Z,58.59
2022-08-21T11:15:11.559Z,58.72
2022-08-21T11:16:11.997Z,58.33
2022-08-21T11:17:11.314Z,58.07
2022-08-21T11:18:12.233Z,56.03
2022-08-21T11:19:12.849Z,52.65
2022-08-21T11:20:13.489Z,53.04
2022-08-21T11:21:14.845Z,55.93
2022-08-21T11:22:15.083Z,54.47
2022-08-21T11:23:16.488Z,52.33
2022-08-21T11:24:18.556Z,51.55
2022-08-21T11:25:18.066Z,53.83
2022-08-21T11:26:18.966Z,54.61
2022-08-21T11:27:19.133Z,55.63
2022-08-21T11:28:20.303Z,55.69
2022-08-21T11:29:20.241Z,57.42
2022-08-21T11:30:20.185Z,56.64
2022-08-21T11:31:20.451Z,57.64
2022-08-21T11:32:21.366Z,55.5
2022-08-21T11:33:22.084Z,55.5
2022-08-21T11:34:22.020Z,55.5
2022-08-21T11:35:22.974Z,56.74
2022-08-21T11:36:22.893Z,56.05
2022-08-21T11:37:23.529Z,58.09
2022-08-21T11:38:23.760Z,58
2022-08-21T11:39:24.650Z,56.37
2022-08-21T11:40:25.316Z,56.76
2022-08-21T11:41:25.577Z,57.93
2022-08-21T11:42:25.491Z,55.99
2022-08-21T11:43:26.216Z,56.76
2022-08-21T11:44:26.723Z,56.96
2022-08-21T11:45:28.307Z,60.42
2022-08-21T11:46:28.034Z,61.49
2022-08-21T11:47:28.803Z,61.52
2022-08-21T11:48:29.455Z,62.01
2022-08-21T11:49:29.668Z,62.59
2022-08-21T11:50:41.230Z,62.04
2022-08-21T11:51:30.567Z,61.65
2022-08-21T11:52:31.477Z,61.65
2022-08-21T11:53:32.216Z,60.8
2022-08-21T11:54:32.160Z,59.74
2022-08-21T11:55:33.090Z,59.57
2022-08-21T11:56:33.605Z,59.47
2022-08-21T11:57:33.842Z,56.77
2022-08-21T11:58:33.777Z,53.67
2022-08-21T11:59:37.613Z,56.97
2022-08-21T12:00:35.795Z,55.32
2022-08-21T12:01:36.270Z,55.83
2022-08-21T12:02:36.499Z,54.08
2022-08-21T12:03:36.470Z,56.81
2022-08-21T12:04:37.302Z,58.07
2022-08-21T12:05:38.534Z,57.49
2022-08-21T12:06:39.172Z,57.78
2022-08-21T12:07:40.093Z,57.68
2022-08-21T12:08:40.308Z,58.17
2022-08-21T12:09:40.974Z,57.29
2022-08-21T12:10:41.916Z,57.71
2022-08-21T12:11:42.870Z,57.71
2022-08-21T12:12:43.144Z,57.81
2022-08-21T12:13:48.670Z,54.79
2022-08-21T12:14:48.581Z,54.79
2022-08-21T12:15:49.518Z,56.05
2022-08-21T12:16:49.859Z,54.6
2022-08-21T12:17:50.793Z,54.89
2022-08-21T12:18:51.801Z,52.16
2022-08-21T12:19:52.036Z,55.54
2022-08-21T12:20:56.301Z,55.74
2022-08-21T12:21:53.260Z,52.72
2022-08-21T12:22:57.480Z,51.82
2022-08-21T12:23:54.863Z,52.96
2022-08-21T12:24:55.134Z,55.27
2022-08-21T12:25:56.066Z,55.14
2022-08-21T12:26:56.277Z,56.09
2022-08-21T12:27:57.514Z,57.15
2022-08-21T12:28:58.448Z,58.15
2022-08-21T12:29:58.384Z,58.34
2022-08-21T12:31:03.423Z,58.28
2022-08-21T12:32:00.382Z,58.11
2022-08-21T12:33:01.094Z,57.33
2022-08-21T12:34:02.110Z,57.17
2022-08-21T12:35:02.345Z,57.07
2022-08-21T12:36:03.078Z,56.03
2022-08-21T12:37:03.583Z,53.89
2022-08-21T12:38:03.940Z,54.4
2022-08-21T12:39:05.176Z,51.87
2022-08-21T12:40:05.280Z,53.81
2022-08-21T12:41:05.611Z,55.47
2022-08-21T12:42:07.510Z,54.69
2022-08-21T12:43:08.040Z,53.94
2022-08-21T12:44:08.095Z,50.04
2022-08-21T12:45:08.308Z,49.46
2022-08-21T12:46:08.833Z,43.43
2022-08-21T12:47:09.040Z,43.04
2022-08-21T12:48:09.545Z,45.28
2022-08-21T12:49:10.087Z,46.25
2022-08-21T12:50:10.720Z,44.3
2022-08-21T12:51:11.358Z,47.32
2022-08-21T12:52:11.987Z,48.1
2022-08-21T12:53:26.030Z,50.14
2022-08-21T12:54:14.291Z,50.43
2022-08-21T12:55:14.805Z,49.85
2022-08-21T12:56:14.717Z,48.19
2022-08-21T12:57:16.279Z,50.24
2022-08-21T12:58:16.501Z,49.07
2022-08-21T12:59:17.709Z,50.82
2022-08-21T13:00:18.646Z,51.41
2022-08-21T13:01:19.406Z,50.53
2022-08-21T13:02:20.288Z,46.64
2022-08-21T13:03:20.921Z,48.97
2022-08-21T13:04:21.698Z,50.14